Zabol, Iran
Current Conditions -  °F | °C
As of 6:00 AM on Monday 24 Nov 2014 (Local Time) from OIZB Reporting Station
Scattered Clouds Scattered Clouds  
Wind Chill: 54°   Ceiling: Unl
Heat Index: 54°   Visibility: 6mi
Dew Point: 23°   Wind: 7mph
Humidity: 30%   Direction: 70°ENE
Pressure: 29.97"   Gusts: NA
Location:  31.04°N, 61.5°E
Report Text: OIZB 240300Z 07006KT 9999 SCT040 12/M05 Q1015
Loading
Personal Weather Stations






























Interactive Weather Map New forecast layout! Learn more

10-Day Weather Forecast

Advertisements
Track Severe Weather on mobile